sensor_id;sensor_type;location;lat;lon;timestamp;P1;durP1;ratioP1;P2;durP2;ratioP2
63438;SDS011;49567;48.958;8.294;2022-11-23T00:00:00;4.00;;;0.80;;
63438;SDS011;49567;48.958;8.294;2022-11-23T00:02:26;3.63;;;1.07;;
63438;SDS011;49567;48.958;8.294;2022-11-23T00:04:51;4.90;;;1.30;;
63438;SDS011;49567;48.958;8.294;2022-11-23T00:07:16;4.70;;;1.10;;
63438;SDS011;49567;48.958;8.294;2022-11-23T00:09:42;4.10;;;1.10;;
63438;SDS011;49567;48.958;8.294;2022-11-23T00:12:07;3.85;;;0.98;;
63438;SDS011;49567;48.958;8.294;2022-11-23T00:14:33;3.30;;;1.10;;
63438;SDS011;49567;48.958;8.294;2022-11-23T00:16:58;1.77;;;0.93;;
63438;SDS011;49567;48.958;8.294;2022-11-23T00:19:23;3.28;;;1.23;;
63438;SDS011;49567;48.958;8.294;2022-11-23T00:21:49;4.07;;;1.10;;
63438;SDS011;49567;48.958;8.294;2022-11-23T00:24:14;3.87;;;1.13;;
63438;SDS011;49567;48.958;8.294;2022-11-23T00:26:39;3.20;;;1.20;;
63438;SDS011;49567;48.958;8.294;2022-11-23T00:29:05;3.33;;;1.20;;
63438;SDS011;49567;48.958;8.294;2022-11-23T00:31:30;6.50;;;1.20;;
63438;SDS011;49567;48.958;8.294;2022-11-23T00:33:56;3.57;;;1.40;;
63438;SDS011;49567;48.958;8.294;2022-11-23T00:36:23;4.95;;;1.00;;
63438;SDS011;49567;48.958;8.294;2022-11-23T00:38:50;3.10;;;0.90;;
63438;SDS011;49567;48.958;8.294;2022-11-23T00:41:19;4.28;;;1.30;;
63438;SDS011;49567;48.958;8.294;2022-11-23T00:43:45;2.17;;;0.98;;
63438;SDS011;49567;48.958;8.294;2022-11-23T00:46:15;3.65;;;1.27;;
63438;SDS011;49567;48.958;8.294;2022-11-23T00:48:52;2.87;;;1.13;;
63438;SDS011;49567;48.958;8.294;2022-11-23T00:51:20;5.68;;;1.02;;
63438;SDS011;49567;48.958;8.294;2022-11-23T00:53:48;3.08;;;0.93;;
63438;SDS011;49567;48.958;8.294;2022-11-23T00:56:14;3.40;;;1.03;;
63438;SDS011;49567;48.958;8.294;2022-11-23T00:58:39;4.47;;;0.87;;
63438;SDS011;49567;48.958;8.294;2022-11-23T01:01:09;3.05;;;0.95;;
63438;SDS011;49567;48.958;8.294;2022-11-23T01:03:41;2.95;;;1.02;;
63438;SDS011;49567;48.958;8.294;2022-11-23T01:06:09;1.50;;;0.83;;
63438;SDS011;49567;48.958;8.294;2022-11-23T01:08:36;3.17;;;0.65;;
63438;SDS011;49567;48.958;8.294;2022-11-23T01:11:05;3.63;;;0.80;;
63438;SDS011;49567;48.958;8.294;2022-11-23T01:13:32;3.92;;;0.90;;
63438;SDS011;49567;48.958;8.294;2022-11-23T01:15:57;4.55;;;0.90;;
63438;SDS011;49567;48.958;8.294;2022-11-23T01:18:24;3.03;;;1.10;;
63438;SDS011;49567;48.958;8.294;2022-11-23T01:20:49;2.63;;;0.90;;
63438;SDS011;49567;48.958;8.294;2022-11-23T01:23:15;3.27;;;0.70;;
63438;SDS011;49567;48.958;8.294;2022-11-23T01:25:41;2.07;;;1.03;;
63438;SDS011;49567;48.958;8.294;2022-11-23T01:28:06;2.07;;;0.50;;
63438;SDS011;49567;48.958;8.294;2022-11-23T01:30:31;5.70;;;0.70;;
63438;SDS011;49567;48.958;8.294;2022-11-23T01:32:58;3.20;;;0.90;;
63438;SDS011;49567;48.958;8.294;2022-11-23T01:35:24;4.37;;;1.10;;
63438;SDS011;49567;48.958;8.294;2022-11-23T01:37:49;6.47;;;1.50;;
63438;SDS011;49567;48.958;8.294;2022-11-23T01:40:14;3.63;;;0.93;;
63438;SDS011;49567;48.958;8.294;2022-11-23T01:45:38;3.00;;;0.52;;
63438;SDS011;49567;48.958;8.294;2022-11-23T01:48:16;3.83;;;0.80;;
63438;SDS011;49567;48.958;8.294;2022-11-23T01:50:45;7.15;;;0.88;;
63438;SDS011;49567;48.958;8.294;2022-11-23T01:53:12;1.50;;;0.90;;
63438;SDS011;49567;48.958;8.294;2022-11-23T01:55:38;6.57;;;1.42;;
63438;SDS011;49567;48.958;8.294;2022-11-23T01:58:04;3.60;;;0.90;;
63438;SDS011;49567;48.958;8.294;2022-11-23T02:00:32;2.30;;;0.70;;
63438;SDS011;49567;48.958;8.294;2022-11-23T02:02:58;3.03;;;1.00;;
63438;SDS011;49567;48.958;8.294;2022-11-23T02:05:29;7.72;;;1.02;;
63438;SDS011;49567;48.958;8.294;2022-11-23T02:07:58;1.95;;;0.88;;
63438;SDS011;49567;48.958;8.294;2022-11-23T02:10:25;6.63;;;1.00;;
63438;SDS011;49567;48.958;8.294;2022-11-23T02:12:51;2.30;;;1.00;;
63438;SDS011;49567;48.958;8.294;2022-11-23T02:15:17;3.75;;;1.30;;
63438;SDS011;49567;48.958;8.294;2022-11-23T02:17:43;4.27;;;1.17;;
63438;SDS011;49567;48.958;8.294;2022-11-23T02:25:39;4.88;;;0.80;;
63438;SDS011;49567;48.958;8.294;2022-11-23T02:28:07;4.57;;;0.85;;
63438;SDS011;49567;48.958;8.294;2022-11-23T02:30:33;5.03;;;1.38;;
63438;SDS011;49567;48.958;8.294;2022-11-23T02:33:02;7.38;;;1.50;;
63438;SDS011;49567;48.958;8.294;2022-11-23T02:35:29;1.90;;;1.00;;
63438;SDS011;49567;48.958;8.294;2022-11-23T02:37:54;5.50;;;0.70;;
63438;SDS011;49567;48.958;8.294;2022-11-23T02:40:30;4.10;;;1.15;;
63438;SDS011;49567;48.958;8.294;2022-11-23T02:42:58;5.20;;;1.30;;
63438;SDS011;49567;48.958;8.294;2022-11-23T02:45:33;3.78;;;1.05;;
63438;SDS011;49567;48.958;8.294;2022-11-23T02:48:02;3.75;;;1.00;;
63438;SDS011;49567;48.958;8.294;2022-11-23T02:50:27;5.35;;;1.35;;
63438;SDS011;49567;48.958;8.294;2022-11-23T02:52:52;3.23;;;0.90;;
63438;SDS011;49567;48.958;8.294;2022-11-23T02:55:18;3.23;;;0.93;;
63438;SDS011;49567;48.958;8.294;2022-11-23T02:57:43;4.47;;;0.87;;
63438;SDS011;49567;48.958;8.294;2022-11-23T03:00:08;3.77;;;0.83;;
63438;SDS011;49567;48.958;8.294;2022-11-23T03:02:35;3.72;;;1.00;;
63438;SDS011;49567;48.958;8.294;2022-11-23T03:05:00;4.60;;;1.00;;
63438;SDS011;49567;48.958;8.294;2022-11-23T03:07:25;5.90;;;0.80;;
63438;SDS011;49567;48.958;8.294;2022-11-23T03:09:50;4.13;;;0.67;;
63438;SDS011;49567;48.958;8.294;2022-11-23T03:12:16;3.70;;;0.90;;
63438;SDS011;49567;48.958;8.294;2022-11-23T03:14:41;1.87;;;0.80;;
63438;SDS011;49567;48.958;8.294;2022-11-23T03:17:06;15.18;;;2.20;;
63438;SDS011;49567;48.958;8.294;2022-11-23T03:19:32;5.17;;;1.00;;
63438;SDS011;49567;48.958;8.294;2022-11-23T03:21:57;3.78;;;1.48;;
63438;SDS011;49567;48.958;8.294;2022-11-23T03:24:22;1.97;;;0.90;;
63438;SDS011;49567;48.958;8.294;2022-11-23T03:26:47;4.72;;;1.20;;
63438;SDS011;49567;48.958;8.294;2022-11-23T03:29:13;2.50;;;0.90;;
63438;SDS011;49567;48.958;8.294;2022-11-23T03:31:38;5.70;;;1.07;;
63438;SDS011;49567;48.958;8.294;2022-11-23T03:34:04;4.33;;;1.10;;
63438;SDS011;49567;48.958;8.294;2022-11-23T03:36:29;3.13;;;0.83;;
63438;SDS011;49567;48.958;8.294;2022-11-23T03:38:54;5.35;;;0.93;;
63438;SDS011;49567;48.958;8.294;2022-11-23T03:41:20;5.40;;;1.23;;
63438;SDS011;49567;48.958;8.294;2022-11-23T03:43:45;6.53;;;1.70;;
63438;SDS011;49567;48.958;8.294;2022-11-23T03:46:10;3.77;;;1.60;;
63438;SDS011;49567;48.958;8.294;2022-11-23T03:48:36;3.03;;;1.20;;
63438;SDS011;49567;48.958;8.294;2022-11-23T03:51:01;3.40;;;1.20;;
63438;SDS011;49567;48.958;8.294;2022-11-23T03:53:26;5.27;;;1.27;;
63438;SDS011;49567;48.958;8.294;2022-11-23T03:55:51;4.43;;;1.30;;
63438;SDS011;49567;48.958;8.294;2022-11-23T03:58:19;5.82;;;2.45;;
63438;SDS011;49567;48.958;8.294;2022-11-23T04:00:44;4.63;;;1.90;;
63438;SDS011;49567;48.958;8.294;2022-11-23T04:03:10;4.63;;;2.10;;
63438;SDS011;49567;48.958;8.294;2022-11-23T04:05:35;6.53;;;1.70;;
63438;SDS011;49567;48.958;8.294;2022-11-23T04:08:00;6.17;;;2.13;;
63438;SDS011;49567;48.958;8.294;2022-11-23T04:10:25;4.73;;;1.83;;
63438;SDS011;49567;48.958;8.294;2022-11-23T04:12:51;7.77;;;3.77;;
63438;SDS011;49567;48.958;8.294;2022-11-23T04:15:17;7.22;;;3.10;;
63438;SDS011;49567;48.958;8.294;2022-11-23T04:17:43;3.50;;;1.00;;
63438;SDS011;49567;48.958;8.294;2022-11-23T04:20:08;4.97;;;1.27;;
63438;SDS011;49567;48.958;8.294;2022-11-23T04:22:34;6.70;;;1.15;;
63438;SDS011;49567;48.958;8.294;2022-11-23T04:25:00;5.37;;;1.40;;
63438;SDS011;49567;48.958;8.294;2022-11-23T04:27:25;1.27;;;0.90;;
63438;SDS011;49567;48.958;8.294;2022-11-23T04:29:50;3.53;;;1.88;;
63438;SDS011;49567;48.958;8.294;2022-11-23T04:32:15;3.43;;;0.80;;
63438;SDS011;49567;48.958;8.294;2022-11-23T04:34:41;1.13;;;0.98;;
63438;SDS011;49567;48.958;8.294;2022-11-23T04:37:06;4.50;;;1.03;;
63438;SDS011;49567;48.958;8.294;2022-11-23T04:39:31;5.53;;;1.60;;
63438;SDS011;49567;48.958;8.294;2022-11-23T04:41:57;5.33;;;0.80;;
63438;SDS011;49567;48.958;8.294;2022-11-23T04:44:22;1.97;;;0.93;;
63438;SDS011;49567;48.958;8.294;2022-11-23T04:46:47;3.17;;;1.00;;
63438;SDS011;49567;48.958;8.294;2022-11-23T04:49:14;3.92;;;0.98;;
63438;SDS011;49567;48.958;8.294;2022-11-23T04:51:39;6.37;;;1.60;;
63438;SDS011;49567;48.958;8.294;2022-11-23T04:54:05;4.67;;;0.93;;
63438;SDS011;49567;48.958;8.294;2022-11-23T04:56:30;5.13;;;1.10;;
63438;SDS011;49567;48.958;8.294;2022-11-23T04:58:55;2.78;;;0.90;;
63438;SDS011;49567;48.958;8.294;2022-11-23T05:01:20;3.40;;;1.00;;
63438;SDS011;49567;48.958;8.294;2022-11-23T05:03:46;3.70;;;0.90;;
63438;SDS011;49567;48.958;8.294;2022-11-23T05:06:11;1.60;;;0.80;;
63438;SDS011;49567;48.958;8.294;2022-11-23T05:08:36;2.90;;;1.23;;
63438;SDS011;49567;48.958;8.294;2022-11-23T05:11:02;1.83;;;1.13;;
63438;SDS011;49567;48.958;8.294;2022-11-23T05:13:27;4.30;;;1.20;;
63438;SDS011;49567;48.958;8.294;2022-11-23T05:15:52;4.93;;;1.67;;
63438;SDS011;49567;48.958;8.294;2022-11-23T05:18:18;7.70;;;2.00;;
63438;SDS011;49567;48.958;8.294;2022-11-23T05:20:43;2.80;;;1.30;;
63438;SDS011;49567;48.958;8.294;2022-11-23T05:23:10;3.60;;;1.38;;
63438;SDS011;49567;48.958;8.294;2022-11-23T05:25:35;5.03;;;2.03;;
63438;SDS011;49567;48.958;8.294;2022-11-23T05:28:00;4.87;;;2.07;;
63438;SDS011;49567;48.958;8.294;2022-11-23T05:30:25;5.97;;;2.40;;
63438;SDS011;49567;48.958;8.294;2022-11-23T05:32:51;5.10;;;2.80;;
63438;SDS011;49567;48.958;8.294;2022-11-23T05:35:16;8.27;;;3.63;;
63438;SDS011;49567;48.958;8.294;2022-11-23T05:37:42;5.47;;;2.80;;
63438;SDS011;49567;48.958;8.294;2022-11-23T05:40:07;8.33;;;2.70;;
63438;SDS011;49567;48.958;8.294;2022-11-23T05:42:33;3.57;;;2.40;;
63438;SDS011;49567;48.958;8.294;2022-11-23T05:44:59;14.43;;;2.40;;
63438;SDS011;49567;48.958;8.294;2022-11-23T05:47:24;5.82;;;1.70;;
63438;SDS011;49567;48.958;8.294;2022-11-23T05:49:49;3.77;;;1.20;;
63438;SDS011;49567;48.958;8.294;2022-11-23T05:52:15;3.53;;;1.10;;
63438;SDS011;49567;48.958;8.294;2022-11-23T05:54:41;4.63;;;1.23;;
63438;SDS011;49567;48.958;8.294;2022-11-23T05:57:06;4.90;;;1.10;;
63438;SDS011;49567;48.958;8.294;2022-11-23T05:59:32;1.92;;;1.20;;
63438;SDS011;49567;48.958;8.294;2022-11-23T06:01:57;3.57;;;1.27;;
63438;SDS011;49567;48.958;8.294;2022-11-23T06:04:22;4.53;;;1.13;;
63438;SDS011;49567;48.958;8.294;2022-11-23T06:06:48;2.57;;;1.07;;
63438;SDS011;49567;48.958;8.294;2022-11-23T06:09:13;8.80;;;1.70;;
63438;SDS011;49567;48.958;8.294;2022-11-23T06:11:38;4.17;;;1.67;;
63438;SDS011;49567;48.958;8.294;2022-11-23T06:14:04;3.63;;;1.20;;
63438;SDS011;49567;48.958;8.294;2022-11-23T06:16:30;2.60;;;1.10;;
63438;SDS011;49567;48.958;8.294;2022-11-23T06:18:55;2.93;;;1.50;;
63438;SDS011;49567;48.958;8.294;2022-11-23T06:21:21;8.63;;;1.70;;
63438;SDS011;49567;48.958;8.294;2022-11-23T06:23:46;6.10;;;1.70;;
63438;SDS011;49567;48.958;8.294;2022-11-23T06:26:11;5.00;;;1.50;;
63438;SDS011;49567;48.958;8.294;2022-11-23T06:28:37;4.72;;;1.50;;
63438;SDS011;49567;48.958;8.294;2022-11-23T06:31:03;6.30;;;1.40;;
63438;SDS011;49567;48.958;8.294;2022-11-23T06:33:30;8.40;;;1.73;;
63438;SDS011;49567;48.958;8.294;2022-11-23T06:35:56;3.50;;;1.50;;
63438;SDS011;49567;48.958;8.294;2022-11-23T06:38:23;5.72;;;1.83;;
63438;SDS011;49567;48.958;8.294;2022-11-23T06:40:49;3.40;;;1.90;;
63438;SDS011;49567;48.958;8.294;2022-11-23T06:43:15;3.63;;;1.60;;
63438;SDS011;49567;48.958;8.294;2022-11-23T06:45:40;5.85;;;1.65;;
63438;SDS011;49567;48.958;8.294;2022-11-23T06:48:05;7.20;;;2.17;;
63438;SDS011;49567;48.958;8.294;2022-11-23T06:50:31;4.20;;;2.50;;
63438;SDS011;49567;48.958;8.294;2022-11-23T06:52:56;3.10;;;2.03;;
63438;SDS011;49567;48.958;8.294;2022-11-23T06:55:23;4.13;;;1.95;;
63438;SDS011;49567;48.958;8.294;2022-11-23T06:57:49;7.88;;;2.38;;
63438;SDS011;49567;48.958;8.294;2022-11-23T07:00:15;10.80;;;2.95;;
63438;SDS011;49567;48.958;8.294;2022-11-23T07:02:41;10.10;;;4.07;;
63438;SDS011;49567;48.958;8.294;2022-11-23T07:05:06;12.10;;;4.83;;
63438;SDS011;49567;48.958;8.294;2022-11-23T07:07:32;12.60;;;4.32;;
63438;SDS011;49567;48.958;8.294;2022-11-23T07:09:57;11.05;;;5.00;;
63438;SDS011;49567;48.958;8.294;2022-11-23T07:12:23;12.30;;;6.33;;
63438;SDS011;49567;48.958;8.294;2022-11-23T07:14:48;17.10;;;7.37;;
63438;SDS011;49567;48.958;8.294;2022-11-23T07:17:13;12.02;;;7.20;;
63438;SDS011;49567;48.958;8.294;2022-11-23T07:19:38;15.57;;;8.53;;
63438;SDS011;49567;48.958;8.294;2022-11-23T07:22:04;16.25;;;8.52;;
63438;SDS011;49567;48.958;8.294;2022-11-23T07:24:29;13.07;;;7.50;;
63438;SDS011;49567;48.958;8.294;2022-11-23T07:26:54;15.17;;;7.83;;
63438;SDS011;49567;48.958;8.294;2022-11-23T07:29:20;20.97;;;8.20;;
63438;SDS011;49567;48.958;8.294;2022-11-23T07:31:45;14.53;;;7.10;;
63438;SDS011;49567;48.958;8.294;2022-11-23T07:34:10;15.38;;;7.68;;
63438;SDS011;49567;48.958;8.294;2022-11-23T07:36:36;13.87;;;7.93;;
63438;SDS011;49567;48.958;8.294;2022-11-23T07:39:02;11.57;;;6.70;;
63438;SDS011;49567;48.958;8.294;2022-11-23T07:41:28;10.17;;;5.63;;
63438;SDS011;49567;48.958;8.294;2022-11-23T07:43:53;10.43;;;5.90;;
63438;SDS011;49567;48.958;8.294;2022-11-23T07:46:18;6.72;;;4.78;;
63438;SDS011;49567;48.958;8.294;2022-11-23T07:48:44;9.32;;;5.18;;
63438;SDS011;49567;48.958;8.294;2022-11-23T07:51:09;10.73;;;5.53;;
63438;SDS011;49567;48.958;8.294;2022-11-23T07:53:34;11.80;;;5.88;;
63438;SDS011;49567;48.958;8.294;2022-11-23T07:56:00;11.03;;;5.50;;
63438;SDS011;49567;48.958;8.294;2022-11-23T07:58:25;9.87;;;5.07;;
63438;SDS011;49567;48.958;8.294;2022-11-23T08:00:51;9.68;;;4.80;;
63438;SDS011;49567;48.958;8.294;2022-11-23T08:03:16;7.57;;;4.73;;
63438;SDS011;49567;48.958;8.294;2022-11-23T08:05:41;5.97;;;4.47;;
63438;SDS011;49567;48.958;8.294;2022-11-23T08:08:07;7.60;;;3.22;;
63438;SDS011;49567;48.958;8.294;2022-11-23T08:10:33;7.82;;;2.55;;
63438;SDS011;49567;48.958;8.294;2022-11-23T08:12:58;5.57;;;2.03;;
63438;SDS011;49567;48.958;8.294;2022-11-23T08:15:28;3.88;;;2.05;;
63438;SDS011;49567;48.958;8.294;2022-11-23T08:17:54;9.07;;;1.93;;
63438;SDS011;49567;48.958;8.294;2022-11-23T08:20:21;7.68;;;1.80;;
63438;SDS011;49567;48.958;8.294;2022-11-23T08:22:46;3.22;;;1.70;;
63438;SDS011;49567;48.958;8.294;2022-11-23T08:25:11;5.83;;;2.00;;
63438;SDS011;49567;48.958;8.294;2022-11-23T08:27:37;4.20;;;1.53;;
63438;SDS011;49567;48.958;8.294;2022-11-23T08:30:02;3.20;;;1.30;;
63438;SDS011;49567;48.958;8.294;2022-11-23T08:32:28;4.47;;;1.40;;
63438;SDS011;49567;48.958;8.294;2022-11-23T08:34:53;6.13;;;2.63;;
63438;SDS011;49567;48.958;8.294;2022-11-23T08:37:18;10.73;;;4.70;;
63438;SDS011;49567;48.958;8.294;2022-11-23T08:39:43;12.70;;;4.20;;
63438;SDS011;49567;48.958;8.294;2022-11-23T08:42:09;10.90;;;2.77;;
63438;SDS011;49567;48.958;8.294;2022-11-23T08:44:34;8.13;;;2.73;;
63438;SDS011;49567;48.958;8.294;2022-11-23T08:46:59;4.97;;;1.77;;
63438;SDS011;49567;48.958;8.294;2022-11-23T08:49:25;5.00;;;1.23;;
63438;SDS011;49567;48.958;8.294;2022-11-23T08:51:50;6.57;;;1.20;;
63438;SDS011;49567;48.958;8.294;2022-11-23T08:54:15;8.27;;;1.40;;
63438;SDS011;49567;48.958;8.294;2022-11-23T08:56:41;6.10;;;1.10;;
63438;SDS011;49567;48.958;8.294;2022-11-23T08:59:07;6.40;;;1.20;;
63438;SDS011;49567;48.958;8.294;2022-11-23T09:01:32;9.30;;;1.55;;
63438;SDS011;49567;48.958;8.294;2022-11-23T09:03:58;4.00;;;1.03;;
63438;SDS011;49567;48.958;8.294;2022-11-23T09:06:23;3.50;;;1.10;;
63438;SDS011;49567;48.958;8.294;2022-11-23T09:08:52;4.93;;;1.30;;
63438;SDS011;49567;48.958;8.294;2022-11-23T09:11:18;7.72;;;1.20;;
63438;SDS011;49567;48.958;8.294;2022-11-23T09:13:43;5.30;;;1.00;;
63438;SDS011;49567;48.958;8.294;2022-11-23T09:16:09;6.83;;;1.23;;
63438;SDS011;49567;48.958;8.294;2022-11-23T09:18:34;3.90;;;1.30;;
63438;SDS011;49567;48.958;8.294;2022-11-23T09:21:01;5.97;;;1.52;;
63438;SDS011;49567;48.958;8.294;2022-11-23T09:23:27;6.75;;;1.35;;
63438;SDS011;49567;48.958;8.294;2022-11-23T09:25:53;4.73;;;1.10;;
63438;SDS011;49567;48.958;8.294;2022-11-23T09:28:18;4.67;;;1.30;;
63438;SDS011;49567;48.958;8.294;2022-11-23T09:30:44;5.30;;;1.30;;
63438;SDS011;49567;48.958;8.294;2022-11-23T09:33:12;6.57;;;1.42;;
63438;SDS011;49567;48.958;8.294;2022-11-23T09:35:37;3.43;;;1.20;;
63438;SDS011;49567;48.958;8.294;2022-11-23T09:38:03;4.97;;;1.20;;
63438;SDS011;49567;48.958;8.294;2022-11-23T09:40:39;4.78;;;1.40;;
63438;SDS011;49567;48.958;8.294;2022-11-23T09:43:16;4.70;;;1.63;;
63438;SDS011;49567;48.958;8.294;2022-11-23T09:45:48;6.47;;;1.30;;
63438;SDS011;49567;48.958;8.294;2022-11-23T09:48:37;6.25;;;1.55;;
63438;SDS011;49567;48.958;8.294;2022-11-23T09:51:18;6.13;;;1.00;;
63438;SDS011;49567;48.958;8.294;2022-11-23T09:53:52;8.20;;;1.45;;
63438;SDS011;49567;48.958;8.294;2022-11-23T09:56:27;5.45;;;1.10;;
63438;SDS011;49567;48.958;8.294;2022-11-23T09:59:11;4.83;;;1.03;;
63438;SDS011;49567;48.958;8.294;2022-11-23T10:01:44;6.32;;;0.98;;
63438;SDS011;49567;48.958;8.294;2022-11-23T10:04:13;4.33;;;1.20;;
63438;SDS011;49567;48.958;8.294;2022-11-23T10:06:41;6.53;;;1.75;;
63438;SDS011;49567;48.958;8.294;2022-11-23T10:20:33;6.47;;;1.50;;
63438;SDS011;49567;48.958;8.294;2022-11-23T10:23:12;3.45;;;1.40;;
63438;SDS011;49567;48.958;8.294;2022-11-23T10:25:43;4.47;;;1.42;;
63438;SDS011;49567;48.958;8.294;2022-11-23T10:28:14;3.85;;;1.35;;
63438;SDS011;49567;48.958;8.294;2022-11-23T10:30:42;8.48;;;1.35;;
63438;SDS011;49567;48.958;8.294;2022-11-23T10:33:30;4.23;;;1.40;;
63438;SDS011;49567;48.958;8.294;2022-11-23T10:36:01;4.20;;;1.48;;
63438;SDS011;49567;48.958;8.294;2022-11-23T10:38:27;4.93;;;1.27;;
63438;SDS011;49567;48.958;8.294;2022-11-23T10:40:56;4.00;;;1.17;;
63438;SDS011;49567;48.958;8.294;2022-11-23T10:43:28;6.43;;;1.23;;
63438;SDS011;49567;48.958;8.294;2022-11-23T10:49:09;5.65;;;1.08;;
63438;SDS011;49567;48.958;8.294;2022-11-23T10:51:34;5.55;;;1.30;;
63438;SDS011;49567;48.958;8.294;2022-11-23T10:54:02;4.28;;;1.20;;
63438;SDS011;49567;48.958;8.294;2022-11-23T10:56:30;4.85;;;1.20;;
63438;SDS011;49567;48.958;8.294;2022-11-23T10:58:56;6.05;;;1.63;;
63438;SDS011;49567;48.958;8.294;2022-11-23T11:01:23;3.90;;;1.50;;
63438;SDS011;49567;48.958;8.294;2022-11-23T11:03:50;7.73;;;1.63;;
63438;SDS011;49567;48.958;8.294;2022-11-23T11:06:34;5.32;;;1.30;;
63438;SDS011;49567;48.958;8.294;2022-11-23T11:09:01;4.00;;;1.17;;
63438;SDS011;49567;48.958;8.294;2022-11-23T11:11:44;4.70;;;1.20;;
63438;SDS011;49567;48.958;8.294;2022-11-23T11:14:18;4.63;;;1.17;;
63438;SDS011;49567;48.958;8.294;2022-11-23T11:16:54;5.30;;;1.52;;
63438;SDS011;49567;48.958;8.294;2022-11-23T11:21:56;10.18;;;1.58;;
63438;SDS011;49567;48.958;8.294;2022-11-23T11:24:34;6.25;;;1.30;;
63438;SDS011;49567;48.958;8.294;2022-11-23T11:27:02;4.22;;;1.02;;
63438;SDS011;49567;48.958;8.294;2022-11-23T11:29:32;7.78;;;1.60;;
63438;SDS011;49567;48.958;8.294;2022-11-23T11:39:59;6.85;;;1.42;;
63438;SDS011;49567;48.958;8.294;2022-11-23T11:43:02;4.28;;;0.98;;
63438;SDS011;49567;48.958;8.294;2022-11-23T11:45:36;4.10;;;0.90;;
63438;SDS011;49567;48.958;8.294;2022-11-23T11:50:44;6.85;;;1.48;;
63438;SDS011;49567;48.958;8.294;2022-11-23T11:53:14;4.85;;;1.25;;
63438;SDS011;49567;48.958;8.294;2022-11-23T11:55:50;5.47;;;1.20;;
63438;SDS011;49567;48.958;8.294;2022-11-23T11:58:21;8.70;;;1.30;;
63438;SDS011;49567;48.958;8.294;2022-11-23T12:00:49;5.40;;;1.20;;
63438;SDS011;49567;48.958;8.294;2022-11-23T12:03:37;4.77;;;1.40;;
63438;SDS011;49567;48.958;8.294;2022-11-23T12:06:08;5.25;;;1.27;;
63438;SDS011;49567;48.958;8.294;2022-11-23T12:08:54;6.70;;;1.30;;
63438;SDS011;49567;48.958;8.294;2022-11-23T12:11:32;4.13;;;1.02;;
63438;SDS011;49567;48.958;8.294;2022-11-23T12:14:01;5.17;;;1.00;;
63438;SDS011;49567;48.958;8.294;2022-11-23T12:16:42;5.07;;;1.10;;
63438;SDS011;49567;48.958;8.294;2022-11-23T12:19:18;4.40;;;1.10;;
63438;SDS011;49567;48.958;8.294;2022-11-23T12:27:28;3.88;;;1.20;;
63438;SDS011;49567;48.958;8.294;2022-11-23T12:33:10;4.05;;;1.13;;
63438;SDS011;49567;48.958;8.294;2022-11-23T12:39:10;4.93;;;0.90;;
63438;SDS011;49567;48.958;8.294;2022-11-23T12:41:51;4.95;;;0.98;;
63438;SDS011;49567;48.958;8.294;2022-11-23T12:47:20;3.83;;;0.88;;
63438;SDS011;49567;48.958;8.294;2022-11-23T12:50:00;2.70;;;0.93;;
63438;SDS011;49567;48.958;8.294;2022-11-23T12:53:01;2.55;;;0.80;;
63438;SDS011;49567;48.958;8.294;2022-11-23T12:55:33;3.47;;;0.60;;
63438;SDS011;49567;48.958;8.294;2022-11-23T13:00:36;3.03;;;0.80;;
63438;SDS011;49567;48.958;8.294;2022-11-23T13:22:31;4.78;;;0.98;;
63438;SDS011;49567;48.958;8.294;2022-11-23T13:25:18;2.42;;;0.98;;
63438;SDS011;49567;48.958;8.294;2022-11-23T13:33:35;4.75;;;1.60;;
63438;SDS011;49567;48.958;8.294;2022-11-23T13:42:53;7.63;;;2.20;;
63438;SDS011;49567;48.958;8.294;2022-11-23T13:50:28;2.97;;;0.60;;
63438;SDS011;49567;48.958;8.294;2022-11-23T13:52:54;2.13;;;0.83;;
63438;SDS011;49567;48.958;8.294;2022-11-23T13:55:21;6.47;;;1.40;;
63438;SDS011;49567;48.958;8.294;2022-11-23T14:00:57;4.30;;;1.00;;
63438;SDS011;49567;48.958;8.294;2022-11-23T14:06:50;4.78;;;0.95;;
63438;SDS011;49567;48.958;8.294;2022-11-23T14:12:22;3.10;;;1.20;;
63438;SDS011;49567;48.958;8.294;2022-11-23T14:17:42;5.50;;;0.90;;
63438;SDS011;49567;48.958;8.294;2022-11-23T14:23:22;4.13;;;1.02;;
63438;SDS011;49567;48.958;8.294;2022-11-23T14:29:08;4.10;;;1.00;;
63438;SDS011;49567;48.958;8.294;2022-11-23T14:37:00;4.75;;;1.13;;
63438;SDS011;49567;48.958;8.294;2022-11-23T14:39:47;4.50;;;1.40;;
63438;SDS011;49567;48.958;8.294;2022-11-23T14:42:22;5.57;;;1.70;;
63438;SDS011;49567;48.958;8.294;2022-11-23T14:44:50;5.57;;;2.20;;
63438;SDS011;49567;48.958;8.294;2022-11-23T14:47:24;4.57;;;2.20;;
63438;SDS011;49567;48.958;8.294;2022-11-23T14:49:54;7.93;;;2.90;;
63438;SDS011;49567;48.958;8.294;2022-11-23T14:52:30;7.23;;;3.77;;
63438;SDS011;49567;48.958;8.294;2022-11-23T14:54:59;13.75;;;2.90;;
63438;SDS011;49567;48.958;8.294;2022-11-23T14:57:27;9.93;;;1.98;;
63438;SDS011;49567;48.958;8.294;2022-11-23T14:59:58;7.65;;;2.03;;
63438;SDS011;49567;48.958;8.294;2022-11-23T15:02:33;4.88;;;2.40;;
63438;SDS011;49567;48.958;8.294;2022-11-23T15:05:05;3.45;;;1.10;;
63438;SDS011;49567;48.958;8.294;2022-11-23T15:15:43;5.50;;;3.00;;
63438;SDS011;49567;48.958;8.294;2022-11-23T15:18:09;6.03;;;2.47;;
63438;SDS011;49567;48.958;8.294;2022-11-23T15:20:41;5.37;;;2.40;;
63438;SDS011;49567;48.958;8.294;2022-11-23T15:23:21;5.20;;;2.10;;
63438;SDS011;49567;48.958;8.294;2022-11-23T15:25:53;3.87;;;2.00;;
63438;SDS011;49567;48.958;8.294;2022-11-23T15:28:26;5.47;;;1.63;;
63438;SDS011;49567;48.958;8.294;2022-11-23T15:30:53;6.55;;;1.38;;
63438;SDS011;49567;48.958;8.294;2022-11-23T15:33:19;4.60;;;1.02;;
63438;SDS011;49567;48.958;8.294;2022-11-23T15:35:46;5.03;;;1.00;;
63438;SDS011;49567;48.958;8.294;2022-11-23T15:38:13;6.40;;;1.20;;
63438;SDS011;49567;48.958;8.294;2022-11-23T15:40:41;5.50;;;2.03;;
63438;SDS011;49567;48.958;8.294;2022-11-23T15:43:12;5.80;;;1.65;;
63438;SDS011;49567;48.958;8.294;2022-11-23T15:48:16;6.40;;;2.03;;
63438;SDS011;49567;48.958;8.294;2022-11-23T15:50:47;4.05;;;1.40;;
63438;SDS011;49567;48.958;8.294;2022-11-23T15:53:17;2.00;;;1.13;;
63438;SDS011;49567;48.958;8.294;2022-11-23T15:55:44;2.55;;;1.75;;
63438;SDS011;49567;48.958;8.294;2022-11-23T15:58:13;3.45;;;1.63;;
63438;SDS011;49567;48.958;8.294;2022-11-23T16:00:45;2.28;;;1.40;;
63438;SDS011;49567;48.958;8.294;2022-11-23T16:03:34;7.30;;;3.40;;
63438;SDS011;49567;48.958;8.294;2022-11-23T16:08:37;20.33;;;7.38;;
63438;SDS011;49567;48.958;8.294;2022-11-23T16:11:05;23.75;;;8.27;;
63438;SDS011;49567;48.958;8.294;2022-11-23T16:13:42;3.00;;;2.23;;
63438;SDS011;49567;48.958;8.294;2022-11-23T16:16:19;4.57;;;1.83;;
63438;SDS011;49567;48.958;8.294;2022-11-23T16:18:47;7.87;;;3.37;;
63438;SDS011;49567;48.958;8.294;2022-11-23T16:21:17;6.25;;;3.88;;
63438;SDS011;49567;48.958;8.294;2022-11-23T16:23:44;7.10;;;3.88;;
63438;SDS011;49567;48.958;8.294;2022-11-23T16:26:15;6.37;;;2.83;;
63438;SDS011;49567;48.958;8.294;2022-11-23T16:28:52;6.22;;;2.90;;
63438;SDS011;49567;48.958;8.294;2022-11-23T16:34:01;4.53;;;1.95;;
63438;SDS011;49567;48.958;8.294;2022-11-23T16:36:27;4.70;;;1.63;;
63438;SDS011;49567;48.958;8.294;2022-11-23T16:38:53;2.17;;;0.93;;
63438;SDS011;49567;48.958;8.294;2022-11-23T16:41:19;1.90;;;1.35;;
63438;SDS011;49567;48.958;8.294;2022-11-23T16:43:44;2.72;;;1.40;;
63438;SDS011;49567;48.958;8.294;2022-11-23T16:46:15;2.10;;;1.27;;
63438;SDS011;49567;48.958;8.294;2022-11-23T16:48:40;4.27;;;1.17;;
63438;SDS011;49567;48.958;8.294;2022-11-23T16:51:07;3.28;;;1.58;;
63438;SDS011;49567;48.958;8.294;2022-11-23T16:53:34;1.65;;;1.35;;
63438;SDS011;49567;48.958;8.294;2022-11-23T16:56:00;6.03;;;2.97;;
63438;SDS011;49567;48.958;8.294;2022-11-23T16:58:29;4.20;;;2.00;;
63438;SDS011;49567;48.958;8.294;2022-11-23T17:00:58;7.82;;;2.45;;